createdAt,value
2022-12-27T00:00:43.475Z,100.00
2022-12-27T00:01:45.647Z,100.00
2022-12-27T00:02:47.294Z,100.00
2022-12-27T00:03:49.541Z,100.00
2022-12-27T00:04:51.322Z,100.00
2022-12-27T00:05:52.954Z,100.00
2022-12-27T00:06:54.849Z,100.00
2022-12-27T00:07:56.405Z,100.00
2022-12-27T00:08:58.962Z,99.67
2022-12-27T00:10:00.583Z,97.96
2022-12-27T00:11:11.727Z,97.07
2022-12-27T00:12:13.322Z,96.07
2022-12-27T00:13:14.890Z,95.70
2022-12-27T00:14:16.450Z,95.05
2022-12-27T00:15:18.050Z,94.44
2022-12-27T00:16:21.119Z,95.24
2022-12-27T00:17:22.758Z,95.03
2022-12-27T00:18:24.356Z,96.29
2022-12-27T00:19:25.904Z,96.37
2022-12-27T00:20:27.465Z,96.05
2022-12-27T00:21:29.136Z,94.71
2022-12-27T00:22:30.654Z,94.88
2022-12-27T00:23:37.944Z,95.27
2022-12-27T00:24:40.315Z,94.84
2022-12-27T00:25:41.847Z,95.20
2022-12-27T00:26:43.388Z,94.12
2022-12-27T00:27:44.905Z,94.57
2022-12-27T00:28:46.557Z,93.44
2022-12-27T00:29:48.098Z,92.26
2022-12-27T00:30:54.717Z,91.50
2022-12-27T00:31:56.398Z,91.25
2022-12-27T00:32:57.927Z,90.79
2022-12-27T00:34:01.802Z,91.22
2022-12-27T00:35:03.677Z,91.49
2022-12-27T00:36:08.193Z,91.03
2022-12-27T00:37:09.733Z,90.82
2022-12-27T00:38:11.243Z,92.32
2022-12-27T00:39:12.781Z,92.92
2022-12-27T00:40:14.326Z,92.35
2022-12-27T00:41:17.301Z,92.39
2022-12-27T00:42:18.857Z,91.87
2022-12-27T00:43:20.419Z,91.91
2022-12-27T00:44:21.948Z,90.19
2022-12-27T00:45:23.522Z,90.10
2022-12-27T00:46:25.145Z,89.09
2022-12-27T00:47:26.653Z,90.09
2022-12-27T00:48:28.337Z,90.04
2022-12-27T00:49:29.970Z,91.66
2022-12-27T00:50:31.628Z,92.24
2022-12-27T00:51:33.223Z,93.19
2022-12-27T00:52:34.776Z,93.57
2022-12-27T00:53:37.044Z,92.66
2022-12-27T00:54:38.775Z,92.81
2022-12-27T00:55:44.005Z,93.53
2022-12-27T00:56:45.604Z,94.57
2022-12-27T00:57:47.172Z,96.18
2022-12-27T00:58:53.265Z,97.86
2022-12-27T00:59:54.942Z,98.30
2022-12-27T01:01:09.263Z,98.80
2022-12-27T01:02:10.837Z,98.77
2022-12-27T01:03:12.407Z,99.70
2022-12-27T01:04:14.649Z,100.00
2022-12-27T01:05:16.731Z,100.00
2022-12-27T01:06:22.786Z,100.00
2022-12-27T01:07:24.890Z,100.00
2022-12-27T01:08:26.461Z,100.00
2022-12-27T01:09:28.054Z,100.00
2022-12-27T01:10:29.577Z,100.00
2022-12-27T01:11:32.097Z,100.00
2022-12-27T01:12:35.040Z,100.00
2022-12-27T01:13:36.973Z,100.00
2022-12-27T01:14:38.522Z,100.00
2022-12-27T01:15:42.466Z,100.00
2022-12-27T01:16:44.343Z,99.66
2022-12-27T01:17:45.973Z,98.87
2022-12-27T01:18:48.327Z,97.57
2022-12-27T01:19:49.855Z,96.02
2022-12-27T01:20:51.441Z,95.46
2022-12-27T01:21:53.007Z,95.23
2022-12-27T01:22:54.945Z,94.64
2022-12-27T01:23:56.661Z,94.69
2022-12-27T01:24:58.173Z,94.79
2022-12-27T01:26:01.917Z,94.87
2022-12-27T01:27:03.516Z,95.15
2022-12-27T01:28:05.277Z,94.77
2022-12-27T01:29:06.789Z,94.45
2022-12-27T01:30:09.125Z,93.59
2022-12-27T01:31:14.329Z,93.32
2022-12-27T01:32:15.899Z,93.21
2022-12-27T01:33:17.446Z,92.48
2022-12-27T01:34:19.210Z,93.58
2022-12-27T01:35:20.736Z,94.32
2022-12-27T01:36:23.923Z,95.21
2022-12-27T01:37:28.864Z,94.43
2022-12-27T01:38:30.468Z,95.30
2022-12-27T01:39:32.079Z,95.75
2022-12-27T01:40:36.349Z,95.63
2022-12-27T01:42:00.633Z,95.21
2022-12-27T01:43:02.403Z,94.88
2022-12-27T01:44:34.724Z,94.68
2022-12-27T01:45:37.142Z,95.40
2022-12-27T01:46:38.760Z,95.28
2022-12-27T01:47:58.973Z,94.48
2022-12-27T01:49:03.243Z,94.17
2022-12-27T01:50:29.817Z,92.38
2022-12-27T01:51:31.451Z,90.25
2022-12-27T01:52:39.775Z,90.12
2022-12-27T01:53:44.773Z,89.61
2022-12-27T01:54:46.674Z,89.33
2022-12-27T01:56:00.312Z,88.98
2022-12-27T01:57:02.692Z,88.22
2022-12-27T01:58:13.294Z,88.46
2022-12-27T01:59:15.316Z,87.30
2022-12-27T02:00:17.610Z,87.74
2022-12-27T02:01:23.508Z,87.44
2022-12-27T02:02:25.318Z,87.40
2022-12-27T02:03:30.205Z,87.40
2022-12-27T02:04:32.785Z,86.99
2022-12-27T02:05:35.327Z,86.97
2022-12-27T02:06:39.470Z,86.27
2022-12-27T02:07:55.749Z,86.54
2022-12-27T02:09:28.491Z,85.89
2022-12-27T02:10:31.248Z,85.63
2022-12-27T02:11:51.161Z,85.74
2022-12-27T02:12:52.944Z,85.64
2022-12-27T02:13:54.674Z,85.83
2022-12-27T02:14:56.196Z,85.49
2022-12-27T02:15:57.756Z,86.21
2022-12-27T02:17:02.188Z,85.81
2022-12-27T02:18:04.250Z,85.77
2022-12-27T02:19:30.723Z,86.16
2022-12-27T02:20:59.178Z,86.71
2022-12-27T02:22:15.878Z,88.03
2022-12-27T02:23:50.065Z,88.76
2022-12-27T02:25:03.690Z,89.03
2022-12-27T02:26:14.366Z,89.12
2022-12-27T02:27:34.480Z,88.27
2022-12-27T02:29:05.334Z,88.73
2022-12-27T02:30:10.113Z,88.63
2022-12-27T02:31:17.080Z,89.59
2022-12-27T02:32:49.566Z,90.06
2022-12-27T02:33:53.325Z,89.56
2022-12-27T02:35:14.678Z,89.54
2022-12-27T02:36:23.869Z,89.02
2022-12-27T02:37:29.342Z,88.85
2022-12-27T02:38:36.202Z,89.53
2022-12-27T02:39:42.211Z,89.59
2022-12-27T02:41:04.253Z,89.77
2022-12-27T02:42:25.084Z,90.67
2022-12-27T02:43:46.887Z,92.87
2022-12-27T02:45:07.401Z,94.03
2022-12-27T02:46:35.795Z,92.92
2022-12-27T02:47:56.457Z,92.52
2022-12-27T02:49:17.526Z,94.58
2022-12-27T02:50:37.979Z,94.53
2022-12-27T02:52:24.973Z,93.63
2022-12-27T02:53:57.993Z,92.50
2022-12-27T02:54:59.503Z,91.82
2022-12-27T02:56:35.158Z,92.08
2022-12-27T02:57:55.557Z,93.80
2022-12-27T02:59:15.859Z,94.24
2022-12-27T03:00:38.398Z,94.08
2022-12-27T03:01:58.297Z,93.08
2022-12-27T03:03:21.138Z,93.04
2022-12-27T03:04:22.645Z,93.81
2022-12-27T03:06:09.439Z,94.58
2022-12-27T03:07:17.384Z,95.28
2022-12-27T03:08:31.689Z,95.27
2022-12-27T03:10:01.728Z,94.47
2022-12-27T03:11:21.989Z,94.13
2022-12-27T03:13:19.579Z,94.53
2022-12-27T03:14:47.443Z,95.32
2022-12-27T03:16:08.812Z,94.18
2022-12-27T03:17:49.043Z,92.28
2022-12-27T03:19:02.960Z,92.46
2022-12-27T03:20:28.123Z,94.27
2022-12-27T03:21:52.965Z,93.90
2022-12-27T03:23:15.230Z,91.18
2022-12-27T03:24:38.128Z,90.23
2022-12-27T03:25:42.664Z,93.17
2022-12-27T03:26:50.148Z,96.52
2022-12-27T03:28:12.834Z,96.37
2022-12-27T03:29:36.756Z,96.46
2022-12-27T03:30:58.774Z,95.91
2022-12-27T03:32:23.726Z,94.16
2022-12-27T03:33:27.570Z,93.69
2022-12-27T03:34:36.007Z,94.16
2022-12-27T03:36:06.820Z,94.73
2022-12-27T03:37:32.616Z,96.53
2022-12-27T03:38:43.309Z,96.20
2022-12-27T03:40:08.105Z,94.36
2022-12-27T03:41:51.604Z,93.74
2022-12-27T03:43:13.911Z,94.55
2022-12-27T03:44:25.073Z,96.83
2022-12-27T03:45:53.340Z,98.39
2022-12-27T03:47:00.736Z,98.12
2022-12-27T03:48:06.305Z,99.45
2022-12-27T03:49:19.986Z,100.00
2022-12-27T03:50:28.548Z,100.00
2022-12-27T03:51:36.089Z,100.00
2022-12-27T03:53:00.946Z,99.18
2022-12-27T03:54:10.447Z,97.83
2022-12-27T03:55:12.598Z,97.79
2022-12-27T03:56:14.379Z,99.52
2022-12-27T03:57:19.155Z,99.97
2022-12-27T03:58:21.027Z,100.00
2022-12-27T03:59:22.867Z,100.00
2022-12-27T04:00:24.450Z,100.00
2022-12-27T04:01:26.090Z,100.00
2022-12-27T04:02:27.911Z,100.00
2022-12-27T04:03:29.586Z,100.00
2022-12-27T04:04:31.494Z,100.00
2022-12-27T04:05:33.009Z,100.00
2022-12-27T04:06:34.511Z,100.00
2022-12-27T04:07:36.102Z,99.85
2022-12-27T04:08:56.095Z,98.35
2022-12-27T04:10:16.154Z,96.60
2022-12-27T04:11:36.154Z,96.17
2022-12-27T04:12:56.790Z,95.26
2022-12-27T04:14:16.671Z,94.63
2022-12-27T04:15:36.609Z,94.88
2022-12-27T04:16:56.729Z,96.95
2022-12-27T04:18:16.810Z,99.00
2022-12-27T04:19:36.668Z,98.87
2022-12-27T04:20:57.007Z,99.32
2022-12-27T04:22:17.301Z,100.00
2022-12-27T04:23:37.530Z,100.00
2022-12-27T04:24:57.686Z,100.00
2022-12-27T04:26:17.750Z,100.00
2022-12-27T04:27:37.545Z,100.00
2022-12-27T04:28:57.709Z,100.00
2022-12-27T04:30:18.157Z,100.00
2022-12-27T04:31:38.845Z,100.00
2022-12-27T04:32:59.156Z,100.00
2022-12-27T04:34:19.226Z,98.53
2022-12-27T04:35:21.351Z,97.21
2022-12-27T04:36:22.915Z,97.35
2022-12-27T04:37:24.444Z,97.28
2022-12-27T04:38:25.955Z,96.84
2022-12-27T04:39:27.546Z,97.02
2022-12-27T04:40:47.418Z,96.13
2022-12-27T04:42:07.343Z,95.16
2022-12-27T04:43:28.191Z,94.96
2022-12-27T04:44:48.553Z,95.12
2022-12-27T04:46:08.577Z,95.21
2022-12-27T04:47:37.627Z,95.38
2022-12-27T04:48:58.076Z,95.18
2022-12-27T04:50:18.656Z,95.08
2022-12-27T04:51:38.845Z,95.29
2022-12-27T04:52:58.803Z,96.24
2022-12-27T04:54:18.671Z,97.18
2022-12-27T04:55:21.975Z,97.62
2022-12-27T04:56:23.491Z,99.17
2022-12-27T04:57:26.873Z,99.42
2022-12-27T04:58:28.832Z,99.06
2022-12-27T04:59:48.712Z,98.17
2022-12-27T05:01:14.008Z,97.97
2022-12-27T05:02:18.290Z,98.33
2022-12-27T05:03:23.259Z,98.54
2022-12-27T05:04:25.232Z,99.19
2022-12-27T05:05:27.312Z,99.62
2022-12-27T05:06:28.905Z,100.00
2022-12-27T05:07:49.472Z,100.00
2022-12-27T05:09:09.529Z,100.00
2022-12-27T05:10:30.207Z,100.00
2022-12-27T05:11:50.067Z,100.00
2022-12-27T05:13:10.108Z,100.00
2022-12-27T05:14:14.753Z,100.00
2022-12-27T05:15:16.472Z,100.00
2022-12-27T05:16:18.087Z,100.00
2022-12-27T05:17:19.746Z,100.00
2022-12-27T05:18:21.390Z,100.00
2022-12-27T05:19:23.045Z,100.00
2022-12-27T05:20:24.739Z,100.00
2022-12-27T05:21:26.700Z,100.00
2022-12-27T05:22:46.451Z,100.00
2022-12-27T05:24:06.799Z,100.00
2022-12-27T05:25:28.106Z,100.00
2022-12-27T05:26:31.371Z,100.00
2022-12-27T05:27:32.983Z,100.00
2022-12-27T05:28:34.579Z,100.00
2022-12-27T05:29:36.122Z,99.66
2022-12-27T05:30:41.062Z,99.36
2022-12-27T05:31:42.964Z,100.00
2022-12-27T05:32:44.540Z,100.00
2022-12-27T05:33:46.520Z,100.00
2022-12-27T05:34:48.041Z,100.00
2022-12-27T05:35:49.609Z,100.00
2022-12-27T05:36:51.106Z,99.58
2022-12-27T05:37:55.711Z,98.32
2022-12-27T05:38:58.473Z,98.92
2022-12-27T05:39:59.998Z,99.56
2022-12-27T05:41:02.701Z,100.00
2022-12-27T05:42:04.383Z,100.00
2022-12-27T05:43:06.035Z,100.00
2022-12-27T05:44:07.894Z,100.00
2022-12-27T05:45:09.590Z,100.00
2022-12-27T05:46:17.748Z,100.00
2022-12-27T05:47:19.347Z,100.00
2022-12-27T05:48:21.929Z,100.00
2022-12-27T05:49:23.528Z,100.00
2022-12-27T05:50:25.126Z,100.00
2022-12-27T05:51:26.643Z,100.00
2022-12-27T05:52:30.450Z,100.00
2022-12-27T05:53:31.979Z,100.00
2022-12-27T05:54:33.580Z,100.00
2022-12-27T05:55:35.121Z,100.00
2022-12-27T05:56:37.403Z,100.00
2022-12-27T05:57:39.068Z,100.00
2022-12-27T05:58:40.986Z,100.00
2022-12-27T05:59:42.516Z,100.00
2022-12-27T06:00:44.033Z,100.00
2022-12-27T06:01:45.731Z,100.00
2022-12-27T06:02:47.466Z,100.00
2022-12-27T06:03:49.119Z,100.00
2022-12-27T06:04:50.685Z,99.87
2022-12-27T06:05:53.072Z,99.33
2022-12-27T06:06:54.649Z,98.66
2022-12-27T06:07:56.344Z,98.10
2022-12-27T06:08:58.570Z,97.14
2022-12-27T06:10:00.147Z,96.67
2022-12-27T06:11:08.047Z,96.13
2022-12-27T06:12:09.728Z,95.50
2022-12-27T06:13:11.364Z,94.17
2022-12-27T06:14:13.143Z,94.68
2022-12-27T06:15:16.011Z,94.86
2022-12-27T06:16:18.913Z,94.69
2022-12-27T06:17:23.765Z,94.20
2022-12-27T06:18:25.471Z,94.93
2022-12-27T06:19:27.498Z,95.68
2022-12-27T06:20:32.640Z,96.18
2022-12-27T06:21:34.394Z,98.12
2022-12-27T06:22:37.125Z,98.63
2022-12-27T06:23:41.173Z,99.68
2022-12-27T06:24:44.012Z,99.79
2022-12-27T06:25:45.730Z,100.00
2022-12-27T06:26:48.278Z,100.00
2022-12-27T06:27:49.965Z,100.00
2022-12-27T06:28:52.540Z,100.00
2022-12-27T06:29:54.073Z,100.00
2022-12-27T06:30:57.929Z,99.88
2022-12-27T06:31:59.695Z,99.58
2022-12-27T06:33:01.534Z,98.90
2022-12-27T06:34:03.206Z,98.73
2022-12-27T06:35:05.541Z,98.73
2022-12-27T06:36:08.822Z,98.35
2022-12-27T06:37:10.491Z,98.07
2022-12-27T06:38:12.037Z,97.46
2022-12-27T06:39:13.627Z,96.48
2022-12-27T06:40:15.325Z,96.16
2022-12-27T06:41:18.540Z,96.22
2022-12-27T06:42:20.116Z,95.61
2022-12-27T06:43:21.705Z,94.83
2022-12-27T06:44:23.267Z,94.67
2022-12-27T06:45:24.929Z,94.84
2022-12-27T06:46:26.638Z,93.84
2022-12-27T06:47:28.219Z,93.37
2022-12-27T06:48:29.948Z,93.13
2022-12-27T06:49:31.536Z,92.91
2022-12-27T06:50:33.107Z,92.48
2022-12-27T06:51:34.623Z,92.07
2022-12-27T06:52:36.339Z,91.82
2022-12-27T06:53:38.259Z,91.62
2022-12-27T06:54:41.418Z,91.39
2022-12-27T06:55:42.962Z,91.08
2022-12-27T06:56:44.712Z,91.87
2022-12-27T06:57:46.254Z,92.72
2022-12-27T06:58:49.197Z,92.42
2022-12-27T06:59:54.031Z,92.52
2022-12-27T07:00:55.845Z,92.52
2022-12-27T07:01:57.594Z,93.56
2022-12-27T07:02:59.232Z,94.62
2022-12-27T07:04:01.101Z,95.71
2022-12-27T07:05:02.728Z,95.61
2022-12-27T07:06:05.688Z,95.74
2022-12-27T07:07:10.812Z,97.23
2022-12-27T07:08:15.198Z,97.60
2022-12-27T07:09:16.863Z,97.37
2022-12-27T07:10:18.579Z,97.12
2022-12-27T07:11:22.338Z,96.44
2022-12-27T07:12:36.301Z,96.83
2022-12-27T07:13:41.411Z,96.94
2022-12-27T07:14:43.174Z,97.24
2022-12-27T07:15:44.803Z,96.73
2022-12-27T07:16:49.180Z,96.53
2022-12-27T07:17:50.860Z,96.68
2022-12-27T07:18:54.242Z,96.13
2022-12-27T07:19:55.857Z,95.26
2022-12-27T07:20:57.643Z,95.22
2022-12-27T07:21:59.201Z,93.88
2022-12-27T07:23:00.736Z,93.27
2022-12-27T07:24:02.336Z,93.74
2022-12-27T07:25:04.583Z,93.78
2022-12-27T07:26:08.954Z,92.62
2022-12-27T07:27:10.463Z,92.01
2022-12-27T07:28:12.002Z,89.60
2022-12-27T07:29:13.632Z,88.62
2022-12-27T07:30:15.280Z,89.87
2022-12-27T07:31:20.121Z,88.84
2022-12-27T07:32:21.793Z,88.83
2022-12-27T07:33:23.319Z,88.80
2022-12-27T07:34:26.124Z,87.37
2022-12-27T07:35:27.698Z,87.43
2022-12-27T07:36:34.456Z,85.69
2022-12-27T07:37:36.069Z,86.04
2022-12-27T07:38:37.688Z,84.87
2022-12-27T07:39:39.235Z,84.43
2022-12-27T07:40:40.906Z,82.82
2022-12-27T07:41:42.551Z,82.85
2022-12-27T07:42:44.093Z,82.02
2022-12-27T07:43:46.192Z,82.16
2022-12-27T07:44:47.905Z,80.50
2022-12-27T07:45:49.506Z,80.18
2022-12-27T07:46:51.326Z,80.03
2022-12-27T07:47:53.372Z,79.07
2022-12-27T07:48:56.532Z,79.22
2022-12-27T07:49:58.116Z,79.70
2022-12-27T07:50:59.958Z,79.87
2022-12-27T07:52:01.558Z,79.22
2022-12-27T07:53:03.232Z,78.35
2022-12-27T07:54:05.185Z,78.84
2022-12-27T07:55:07.050Z,78.63
2022-12-27T07:56:23.454Z,78.61
2022-12-27T07:57:29.520Z,78.15
2022-12-27T07:58:31.081Z,77.91
2022-12-27T07:59:32.716Z,77.97
2022-12-27T08:00:34.387Z,77.43
2022-12-27T08:02:01.727Z,77.01
2022-12-27T08:03:06.586Z,77.78
2022-12-27T08:04:08.285Z,77.72
2022-12-27T08:05:10.051Z,76.34
2022-12-27T08:06:35.122Z,76.14
2022-12-27T08:07:38.185Z,75.71
2022-12-27T08:08:43.217Z,76.16
2022-12-27T08:09:46.552Z,76.56
2022-12-27T08:10:48.185Z,76.13
2022-12-27T08:11:49.791Z,76.29
2022-12-27T08:12:51.348Z,76.00
2022-12-27T08:13:53.392Z,75.31
2022-12-27T08:14:54.919Z,75.36
2022-12-27T08:15:56.592Z,74.67
2022-12-27T08:17:03.836Z,74.67
2022-12-27T08:18:05.664Z,73.97
2022-12-27T08:19:08.623Z,74.48
2022-12-27T08:20:19.252Z,73.88
2022-12-27T08:21:21.035Z,74.13
2022-12-27T08:22:24.169Z,74.12
2022-12-27T08:23:25.731Z,74.13
2022-12-27T08:24:27.268Z,74.13
2022-12-27T08:25:29.749Z,74.29
2022-12-27T08:26:31.417Z,74.29
2022-12-27T08:27:33.133Z,74.60
2022-12-27T08:28:35.110Z,74.87
2022-12-27T08:29:37.851Z,74.13
2022-12-27T08:30:41.112Z,73.84
2022-12-27T08:31:42.662Z,73.86
2022-12-27T08:32:44.195Z,73.87
2022-12-27T08:33:45.819Z,73.68
2022-12-27T08:34:47.888Z,73.65
2022-12-27T08:35:54.059Z,74.09
2022-12-27T08:36:57.411Z,73.88
2022-12-27T08:38:02.458Z,74.10
2022-12-27T08:39:04.078Z,73.37
2022-12-27T08:40:06.278Z,73.15
2022-12-27T08:41:07.836Z,72.95
2022-12-27T08:42:12.673Z,73.89
2022-12-27T08:43:14.607Z,72.68
2022-12-27T08:44:16.194Z,72.98
2022-12-27T08:45:17.738Z,72.66
2022-12-27T08:46:19.713Z,72.92
2022-12-27T08:47:21.676Z,73.29
2022-12-27T08:48:23.261Z,73.23
2022-12-27T08:49:24.871Z,72.77
2022-12-27T08:50:27.774Z,73.33
2022-12-27T08:51:35.950Z,73.70
2022-12-27T08:52:41.883Z,75.28
2022-12-27T08:53:43.633Z,76.98
2022-12-27T08:54:45.170Z,77.59
2022-12-27T08:55:46.760Z,78.03
2022-12-27T08:56:48.278Z,78.19
2022-12-27T08:57:49.909Z,78.11
2022-12-27T08:58:51.483Z,77.99
2022-12-27T08:59:53.109Z,80.14
2022-12-27T09:00:54.821Z,82.06
2022-12-27T09:01:56.555Z,82.08
2022-12-27T09:02:58.729Z,82.95
2022-12-27T09:04:00.294Z,83.25
2022-12-27T09:05:01.939Z,81.99
2022-12-27T09:06:16.268Z,81.31
2022-12-27T09:07:17.863Z,81.45
2022-12-27T09:08:19.467Z,82.10
2022-12-27T09:09:21.252Z,80.30
2022-12-27T09:10:23.967Z,80.46
2022-12-27T09:11:30.560Z,82.29
2022-12-27T09:12:33.614Z,81.79
2022-12-27T09:13:35.202Z,81.43
2022-12-27T09:14:36.799Z,81.90
2022-12-27T09:15:38.752Z,82.22
2022-12-27T09:16:40.404Z,81.58
2022-12-27T09:17:42.272Z,80.86
2022-12-27T09:18:44.372Z,81.16
2022-12-27T09:19:45.922Z,81.39
2022-12-27T09:20:47.497Z,81.49
2022-12-27T09:21:49.033Z,81.40
2022-12-27T09:22:52.131Z,81.16
2022-12-27T09:23:55.220Z,80.68
2022-12-27T09:24:57.100Z,80.18
2022-12-27T09:25:58.690Z,79.97
2022-12-27T09:27:00.207Z,79.29
2022-12-27T09:28:02.070Z,78.49
2022-12-27T09:29:04.288Z,78.13
2022-12-27T09:30:07.750Z,77.33
2022-12-27T09:31:11.079Z,76.83
2022-12-27T09:32:12.640Z,76.92
2022-12-27T09:33:14.161Z,75.11
2022-12-27T09:34:15.728Z,75.59
2022-12-27T09:35:17.578Z,77.90
2022-12-27T09:36:21.648Z,78.69
2022-12-27T09:37:23.190Z,78.40
2022-12-27T09:38:24.719Z,77.26
2022-12-27T09:39:26.238Z,77.55
2022-12-27T09:40:27.831Z,76.05
2022-12-27T09:43:20.770Z,77.41
2022-12-27T09:44:46.703Z,76.27
2022-12-27T09:45:52.044Z,77.38
2022-12-27T09:47:12.647Z,77.75
2022-12-27T09:48:32.592Z,77.05
2022-12-27T09:49:45.650Z,77.47
2022-12-27T09:50:55.532Z,77.18
2022-12-27T09:52:13.056Z,76.70
2022-12-27T09:53:24.911Z,76.13
2022-12-27T09:54:37.296Z,75.33
2022-12-27T09:55:51.703Z,75.35
2022-12-27T09:57:18.913Z,74.70
2022-12-27T09:58:40.589Z,74.13
2022-12-27T09:59:47.205Z,74.10
2022-12-27T10:00:52.794Z,73.24
2022-12-27T10:01:54.427Z,73.48
2022-12-27T10:02:57.983Z,73.72
2022-12-27T10:04:00.549Z,73.82
2022-12-27T10:05:20.843Z,73.25
2022-12-27T10:06:31.459Z,74.38
2022-12-27T10:07:57.507Z,73.13
2022-12-27T10:09:21.505Z,72.99
2022-12-27T10:10:35.406Z,73.60
2022-12-27T10:11:47.719Z,72.89
2022-12-27T10:12:55.384Z,74.48
2022-12-27T10:14:00.916Z,73.21
2022-12-27T10:15:14.772Z,74.83
2022-12-27T10:16:40.492Z,73.99
2022-12-27T10:17:42.014Z,73.36
2022-12-27T10:19:32.308Z,71.68
2022-12-27T10:20:55.403Z,71.68
2022-12-27T10:22:28.919Z,71.92
2022-12-27T10:23:34.271Z,72.40
2022-12-27T10:24:48.990Z,70.84
2022-12-27T10:25:58.101Z,72.42
2022-12-27T10:26:59.988Z,74.72
2022-12-27T10:28:31.479Z,73.96
2022-12-27T10:29:34.149Z,74.63
2022-12-27T10:30:35.749Z,73.92
2022-12-27T10:31:42.628Z,74.42
2022-12-27T10:32:44.604Z,74.53
2022-12-27T10:33:48.485Z,74.22
2022-12-27T10:35:00.618Z,73.00
2022-12-27T10:36:14.460Z,73.45
2022-12-27T10:37:16.640Z,72.33
2022-12-27T10:38:19.448Z,73.34
2022-12-27T10:39:27.798Z,72.84
2022-12-27T10:40:43.292Z,72.89
2022-12-27T10:41:50.686Z,73.07
2022-12-27T10:43:02.880Z,72.46
2022-12-27T10:44:11.369Z,72.20
2022-12-27T10:45:42.741Z,72.09
2022-12-27T10:46:51.222Z,72.79
2022-12-27T10:47:56.019Z,71.75
2022-12-27T10:49:23.294Z,70.36
2022-12-27T10:50:27.684Z,70.43
2022-12-27T10:51:39.416Z,71.65
2022-12-27T10:52:41.053Z,70.62
2022-12-27T10:53:45.601Z,70.93
2022-12-27T10:54:52.513Z,71.66
2022-12-27T10:56:09.971Z,71.08
2022-12-27T10:57:26.986Z,71.63
2022-12-27T10:58:31.469Z,71.85
2022-12-27T10:59:33.083Z,71.79
2022-12-27T11:00:34.910Z,72.08
2022-12-27T11:01:36.661Z,71.20
2022-12-27T11:02:49.947Z,70.90
2022-12-27T11:03:51.967Z,71.10
2022-12-27T11:04:59.464Z,71.50
2022-12-27T11:06:07.529Z,70.47
2022-12-27T11:07:18.777Z,71.57
2022-12-27T11:08:21.410Z,71.14
2022-12-27T11:09:39.184Z,71.17
2022-12-27T11:10:40.881Z,71.37
2022-12-27T11:11:42.420Z,71.25
2022-12-27T11:13:03.436Z,70.77
2022-12-27T11:14:16.024Z,70.60
2022-12-27T11:15:20.724Z,71.21
2022-12-27T11:16:35.025Z,71.37
2022-12-27T11:17:46.962Z,72.01
2022-12-27T11:18:52.591Z,71.76
2022-12-27T11:19:56.216Z,71.77
2022-12-27T11:20:59.367Z,72.21
2022-12-27T11:22:07.049Z,71.84
2022-12-27T11:23:08.613Z,71.14
2022-12-27T11:24:16.411Z,71.35
2022-12-27T11:25:18.669Z,70.49
2022-12-27T11:26:26.540Z,69.84
2022-12-27T11:27:30.269Z,68.81
2022-12-27T11:28:38.401Z,69.29
2022-12-27T11:29:45.579Z,70.06
2022-12-27T11:30:59.165Z,72.28
2022-12-27T11:32:07.339Z,72.57
2022-12-27T11:33:26.896Z,72.29
2022-12-27T11:34:36.119Z,72.78
2022-12-27T11:35:47.621Z,71.46
2022-12-27T11:36:53.336Z,70.37
2022-12-27T11:37:55.258Z,70.09
2022-12-27T11:38:57.238Z,70.54
2022-12-27T11:40:21.636Z,71.03
2022-12-27T11:41:37.106Z,70.91
2022-12-27T11:42:49.591Z,71.37
2022-12-27T11:43:56.192Z,70.39
2022-12-27T11:45:07.224Z,71.41
2022-12-27T11:46:34.189Z,72.53
2022-12-27T11:47:54.132Z,71.16
2022-12-27T11:48:58.526Z,71.56
2022-12-27T11:50:22.572Z,72.01
2022-12-27T11:51:43.035Z,71.71
2022-12-27T11:52:53.630Z,71.82
2022-12-27T11:54:04.386Z,71.44
2022-12-27T11:55:21.133Z,70.38
2022-12-27T11:56:27.233Z,71.47
2022-12-27T11:58:04.174Z,70.48
2022-12-27T11:59:30.727Z,71.23
2022-12-27T12:00:54.622Z,71.63
2022-12-27T12:02:21.220Z,70.87
2022-12-27T12:03:55.835Z,71.34
2022-12-27T12:05:15.833Z,71.43
2022-12-27T12:06:34.451Z,71.05
2022-12-27T12:07:54.585Z,71.48
2022-12-27T12:09:23.341Z,71.41
2022-12-27T12:10:42.042Z,71.78
2022-12-27T12:11:55.508Z,71.19
2022-12-27T12:13:27.880Z,70.22
2022-12-27T12:15:21.384Z,71.26
2022-12-27T12:17:07.147Z,72.00
2022-12-27T12:18:14.424Z,71.40
2022-12-27T12:19:41.435Z,71.41
2022-12-27T12:21:16.901Z,71.12
2022-12-27T12:22:30.483Z,72.53
2022-12-27T12:24:10.613Z,72.23
2022-12-27T12:25:21.031Z,71.86
2022-12-27T12:26:25.177Z,72.06
2022-12-27T12:27:41.558Z,71.82
2022-12-27T12:29:18.316Z,71.01
2022-12-27T12:31:07.511Z,72.09
2022-12-27T12:32:23.721Z,72.42
2022-12-27T12:33:43.305Z,71.80
2022-12-27T12:35:23.927Z,72.66
2022-12-27T12:36:49.149Z,71.60
2022-12-27T12:38:20.687Z,72.29
2022-12-27T12:39:30.884Z,77.36
2022-12-27T12:41:10.090Z,75.48
2022-12-27T12:42:30.059Z,70.37
2022-12-27T12:43:56.947Z,70.30
2022-12-27T12:45:16.521Z,70.85
2022-12-27T12:46:27.508Z,71.07
2022-12-27T12:47:44.675Z,70.71
2022-12-27T12:48:49.088Z,70.77
2022-12-27T12:50:21.368Z,69.92
2022-12-27T12:51:35.642Z,70.66
2022-12-27T12:52:48.977Z,70.85
2022-12-27T12:54:27.014Z,70.12
2022-12-27T12:55:38.863Z,69.98
2022-12-27T12:57:28.487Z,68.82
2022-12-27T12:58:46.194Z,68.69
2022-12-27T13:00:09.342Z,68.47
2022-12-27T13:01:25.992Z,67.98
2022-12-27T13:02:36.829Z,68.25
2022-12-27T13:03:56.060Z,67.61
2022-12-27T13:05:15.952Z,68.82
2022-12-27T13:06:40.188Z,69.32
2022-12-27T13:07:55.821Z,68.59
2022-12-27T13:09:34.783Z,68.50
2022-12-27T13:11:14.424Z,67.97
2022-12-27T13:12:30.966Z,67.60
2022-12-27T13:13:48.145Z,67.90
2022-12-27T13:15:13.604Z,67.40
2022-12-27T13:16:34.743Z,67.35
2022-12-27T13:17:52.856Z,67.34
2022-12-27T13:19:28.909Z,67.16
2022-12-27T13:21:00.542Z,66.87
2022-12-27T13:22:05.150Z,66.52
2022-12-27T13:23:17.303Z,67.10
2022-12-27T13:24:29.416Z,67.27
2022-12-27T13:25:55.332Z,67.06
2022-12-27T13:27:13.754Z,67.82
2022-12-27T13:28:34.353Z,67.34
2022-12-27T13:30:11.298Z,66.75
2022-12-27T13:31:37.684Z,66.91
2022-12-27T13:33:02.041Z,66.42
2022-12-27T13:34:34.505Z,67.59
2022-12-27T13:36:21.026Z,67.44
2022-12-27T13:37:57.678Z,67.93
2022-12-27T13:39:17.894Z,67.44
2022-12-27T13:40:42.053Z,67.60
2022-12-27T13:42:13.409Z,68.46
2022-12-27T13:43:35.915Z,68.14
2022-12-27T13:44:46.570Z,68.30
2022-12-27T13:46:25.351Z,68.05
2022-12-27T13:47:59.111Z,68.14
2022-12-27T13:49:12.513Z,68.13
2022-12-27T13:50:35.026Z,68.29
2022-12-27T13:51:48.469Z,68.18
2022-12-27T13:52:59.814Z,68.64
2022-12-27T13:54:11.059Z,68.03
2022-12-27T13:55:24.698Z,68.33
2022-12-27T13:56:58.337Z,68.17
2022-12-27T13:58:22.139Z,68.45
2022-12-27T13:59:41.651Z,68.66
2022-12-27T14:01:01.474Z,69.52
2022-12-27T14:02:43.752Z,69.46
2022-12-27T14:04:00.173Z,69.23
2022-12-27T14:05:01.704Z,69.77
2022-12-27T14:06:17.454Z,69.22
2022-12-27T14:07:37.147Z,70.62
2022-12-27T14:08:57.233Z,70.47
2022-12-27T14:10:29.246Z,70.12
2022-12-27T14:12:09.522Z,70.89
2022-12-27T14:13:12.814Z,70.22
2022-12-27T14:14:17.826Z,69.76
2022-12-27T14:15:27.381Z,69.78
2022-12-27T14:16:44.555Z,69.81
2022-12-27T14:17:49.053Z,69.43
2022-12-27T14:18:56.669Z,69.89
2022-12-27T14:20:39.768Z,70.06
2022-12-27T14:22:02.293Z,70.21
2022-12-27T14:23:30.175Z,70.90
2022-12-27T14:24:59.529Z,70.66
2022-12-27T14:26:33.792Z,70.46
2022-12-27T14:27:57.195Z,69.91
2022-12-27T14:29:23.654Z,70.46
2022-12-27T14:30:46.530Z,70.61
2022-12-27T14:32:17.142Z,70.00
2022-12-27T14:33:45.984Z,70.51
2022-12-27T14:35:00.145Z,70.51
2022-12-27T14:36:23.292Z,71.10
2022-12-27T14:37:43.697Z,70.75
2022-12-27T14:39:10.954Z,70.10
2022-12-27T14:40:18.808Z,69.64
2022-12-27T14:41:57.186Z,69.92
2022-12-27T14:43:36.240Z,69.89
2022-12-27T14:44:57.980Z,69.99
2022-12-27T14:46:30.090Z,70.06
2022-12-27T14:47:49.787Z,70.68
2022-12-27T14:49:03.544Z,70.68
2022-12-27T14:50:13.860Z,70.84
2022-12-27T14:52:06.119Z,70.50
2022-12-27T14:53:36.446Z,71.21
2022-12-27T14:55:06.627Z,70.41
2022-12-27T14:56:26.770Z,70.45
2022-12-27T14:57:58.420Z,71.30
2022-12-27T14:59:09.597Z,72.12
2022-12-27T15:00:19.454Z,71.01
2022-12-27T15:01:39.363Z,71.44
2022-12-27T15:03:13.363Z,71.47
2022-12-27T15:04:49.215Z,71.76